createdAt,value
2022-10-05T00:06:37.260Z,9.50
2022-10-05T00:21:37.115Z,9.33
2022-10-05T00:36:37.322Z,8.84
2022-10-05T00:51:37.355Z,9.11
2022-10-05T01:06:37.432Z,9.11
2022-10-05T01:21:37.506Z,9.17
2022-10-05T01:36:37.614Z,9.15
2022-10-05T01:51:37.700Z,8.80
2022-10-05T02:06:38.166Z,8.16
2022-10-05T02:21:38.506Z,7.71
2022-10-05T02:36:38.849Z,7.30
2022-10-05T02:51:38.832Z,6.97
2022-10-05T03:06:39.330Z,7.07
2022-10-05T03:21:39.723Z,7.35
2022-10-05T03:36:39.772Z,7.75
2022-10-05T03:51:40.887Z,8.43
2022-10-05T04:06:41.091Z,8.65
2022-10-05T04:21:41.217Z,8.86
2022-10-05T04:36:41.332Z,9.11
2022-10-05T04:51:41.375Z,9.05
2022-10-05T05:06:42.062Z,9.15
2022-10-05T05:21:42.625Z,9.14
2022-10-05T05:36:42.799Z,9.18
2022-10-05T05:51:42.885Z,9.36
2022-10-05T06:06:44.466Z,9.57
2022-10-05T06:21:45.630Z,9.83
2022-10-05T06:36:45.719Z,10.40
2022-10-05T06:51:46.407Z,10.70
2022-10-05T07:06:46.562Z,11.32
2022-10-05T07:21:46.907Z,12.19
2022-10-05T07:36:50.849Z,13.03
2022-10-05T07:51:51.799Z,13.70
2022-10-05T08:06:51.906Z,13.89
2022-10-05T08:21:51.998Z,14.27
2022-10-05T08:36:54.022Z,15.10
2022-10-05T08:51:54.233Z,15.56
2022-10-05T09:06:54.264Z,15.51
2022-10-05T09:21:54.546Z,15.86
2022-10-05T09:36:54.459Z,16.15
2022-10-05T09:51:54.576Z,16.66
2022-10-05T10:06:54.914Z,17.90
2022-10-05T10:21:54.851Z,18.62
2022-10-05T10:36:54.936Z,19.43
2022-10-05T10:51:55.012Z,20.16
2022-10-05T11:06:55.120Z,21.38
2022-10-05T11:21:55.221Z,22.03
2022-10-05T11:36:55.873Z,22.25
2022-10-05T11:51:55.916Z,21.61
2022-10-05T12:06:56.039Z,22.43
2022-10-05T12:21:56.122Z,22.57
2022-10-05T12:37:04.669Z,22.57
2022-10-05T12:52:01.314Z,23.07
2022-10-05T13:07:01.450Z,23.46
2022-10-05T13:22:04.272Z,23.28
2022-10-05T13:37:04.631Z,23.09
2022-10-05T13:52:04.749Z,22.95
2022-10-05T14:07:04.805Z,22.75
2022-10-05T14:22:04.924Z,22.52
2022-10-05T14:37:05.000Z,22.42
2022-10-05T14:52:05.659Z,21.96
2022-10-05T15:07:05.718Z,21.14
2022-10-05T15:22:06.011Z,20.29
2022-10-05T15:37:05.982Z,19.55
2022-10-05T15:52:06.077Z,18.92
2022-10-05T16:07:06.228Z,18.44
2022-10-05T16:22:06.326Z,18.15
2022-10-05T16:37:06.392Z,17.48
2022-10-05T16:52:06.618Z,17.11
2022-10-05T17:07:07.151Z,16.63
2022-10-05T17:22:07.878Z,16.09
2022-10-05T17:37:08.332Z,15.43
2022-10-05T17:52:08.523Z,14.75
2022-10-05T18:07:08.582Z,14.28
2022-10-05T18:22:08.650Z,13.71
2022-10-05T18:37:08.725Z,13.48
2022-10-05T18:52:08.803Z,13.07
2022-10-05T19:07:10.196Z,12.74
2022-10-05T19:22:10.289Z,12.27
2022-10-05T19:37:10.402Z,12.01
2022-10-05T19:52:10.521Z,11.58
2022-10-05T20:07:10.580Z,11.40
2022-10-05T20:22:10.724Z,11.73
2022-10-05T20:37:10.989Z,11.78
2022-10-05T20:52:10.991Z,12.17
2022-10-05T21:07:11.152Z,12.67
2022-10-05T21:22:11.197Z,13.15
2022-10-05T21:37:11.253Z,13.41
2022-10-05T21:52:11.948Z,13.29
2022-10-05T22:07:11.950Z,13.42
2022-10-05T22:22:12.157Z,13.39
2022-10-05T22:37:12.154Z,13.49
2022-10-05T22:52:12.268Z,13.95
2022-10-05T23:07:12.376Z,13.89
2022-10-05T23:22:12.722Z,13.91
2022-10-05T23:37:12.722Z,13.69
2022-10-05T23:52:13.062Z,13.59
